Neosho, MO (64850)

9:01 AM CST on January 31, 2015 (GMT -0600)
APRSWXNET Neosho MO US | Change Station
CLOSE
Current Station
Personal Weather Station
Location: Neosho, MO
Elevation: 1023 ft
Nearby Weather Stations

Elev 1023 ft 36.87 °N, 94.37 °W | Updated 35 minutes ago

Mostly Cloudy
Mostly Cloudy
41 °F
Feels Like 38 °F
N
4
Wind Variable Wind from East
Gusts 9.0 mph

Today
High -- | Low -- °F
--% Chance of Precip.
Yesterday
High -- | Low -- °F
Precip. -- in
7:20 AM 5:41 PM
Waxing Gibbous, 90% visible
Pressure 30.23 in
Visibility 10.0 miles
Clouds Mostly Cloudy 11000 ft
Windchill 38 °F
Dew Point 27 °F
Humidity 56%
Rainfall 0.00 in
Snow Depth Not available.
UV 0 out of 12
Pollen .10 out of 12
Air Quality Not available.
Flu Activity Not available.
METAR KHFJ 311435Z AUTO 11008KT 10SM BKN110 05/M03 A3023 RMK AO2

More Conditions Fewer Conditions

Pressure 30.23 in
Visibility 10.0 miles
Clouds Mostly Cloudy 11000 ft
Windchill 38 °F
Dew Point 27 °F
Humidity 56%
Rainfall 0.00 in
Snow Depth Not available.
UV 0 out of 12
Pollen .10 out of 12
Air Quality Not available.
Flu Activity Not available.
METAR KHFJ 311435Z AUTO 11008KT 10SM BKN110 05/M03 A3023 RMK AO2

More Conditions Fewer Conditions

10-Day Weather Forecast

Almanac

Astronomy

Jan. 31, 2015 Rise Set
Actual Time
Civil Twilight
Nautical Twilight
Astronomical Twilight
Moon
Length of Visible Light
Length of Day
Tomorrow will be .
, % of the Moon is Illuminated

Today's Extremes

State Highs State Lows

Community

WunderPhotos

Upload Photos

1,792,080 photos uploaded!

WunderBlogs® & News

Nearby

Air Quality

  Air Quality AQ Index Pollutant
Not available.

Snow Depth

Station Depth Elevation

Earthquake Activity

City Distance Mag. Time & Date
Minimum magnitude displayed is 2.5.

Coastal Water Temperatures

Place Temperature

Nearby Weather Stations